sensor_id;sensor_type;location;lat;lon;timestamp;P1;durP1;ratioP1;P2;durP2;ratioP2
25627;SDS011;40915;50.826;4.356;2023-02-18T00:01:10;14.27;;;10.15;;
25627;SDS011;40915;50.826;4.356;2023-02-18T00:03:37;12.87;;;10.17;;
25627;SDS011;40915;50.826;4.356;2023-02-18T00:08:51;15.47;;;11.10;;
25627;SDS011;40915;50.826;4.356;2023-02-18T00:11:17;13.68;;;10.05;;
25627;SDS011;40915;50.826;4.356;2023-02-18T00:13:51;16.38;;;10.75;;
25627;SDS011;40915;50.826;4.356;2023-02-18T00:16:18;16.47;;;10.73;;
25627;SDS011;40915;50.826;4.356;2023-02-18T00:18:45;14.07;;;9.97;;
25627;SDS011;40915;50.826;4.356;2023-02-18T00:21:10;13.85;;;9.70;;
25627;SDS011;40915;50.826;4.356;2023-02-18T00:23:38;14.65;;;9.48;;
25627;SDS011;40915;50.826;4.356;2023-02-18T00:26:04;12.57;;;8.63;;
25627;SDS011;40915;50.826;4.356;2023-02-18T00:28:40;11.30;;;7.85;;
25627;SDS011;40915;50.826;4.356;2023-02-18T00:31:13;13.83;;;8.27;;
25627;SDS011;40915;50.826;4.356;2023-02-18T00:33:41;13.03;;;8.37;;
25627;SDS011;40915;50.826;4.356;2023-02-18T00:36:08;11.30;;;7.68;;
25627;SDS011;40915;50.826;4.356;2023-02-18T00:38:36;10.18;;;7.72;;
25627;SDS011;40915;50.826;4.356;2023-02-18T00:41:03;10.55;;;7.18;;
25627;SDS011;40915;50.826;4.356;2023-02-18T00:43:29;11.35;;;7.55;;
25627;SDS011;40915;50.826;4.356;2023-02-18T00:45:54;10.27;;;7.78;;
25627;SDS011;40915;50.826;4.356;2023-02-18T00:48:20;11.70;;;7.50;;
25627;SDS011;40915;50.826;4.356;2023-02-18T00:50:46;11.35;;;7.03;;
25627;SDS011;40915;50.826;4.356;2023-02-18T00:53:12;11.20;;;7.57;;
25627;SDS011;40915;50.826;4.356;2023-02-18T00:55:46;9.65;;;6.72;;
25627;SDS011;40915;50.826;4.356;2023-02-18T00:58:13;12.38;;;6.75;;
25627;SDS011;40915;50.826;4.356;2023-02-18T01:00:39;9.57;;;6.60;;
25627;SDS011;40915;50.826;4.356;2023-02-18T01:03:05;8.30;;;5.85;;
25627;SDS011;40915;50.826;4.356;2023-02-18T01:05:35;8.10;;;5.63;;
25627;SDS011;40915;50.826;4.356;2023-02-18T01:08:02;8.57;;;6.30;;
25627;SDS011;40915;50.826;4.356;2023-02-18T01:10:29;9.40;;;5.73;;
25627;SDS011;40915;50.826;4.356;2023-02-18T01:12:55;6.67;;;5.03;;
25627;SDS011;40915;50.826;4.356;2023-02-18T01:15:21;7.43;;;4.57;;
25627;SDS011;40915;50.826;4.356;2023-02-18T01:17:47;5.60;;;4.45;;
25627;SDS011;40915;50.826;4.356;2023-02-18T01:20:13;4.25;;;3.55;;
25627;SDS011;40915;50.826;4.356;2023-02-18T01:22:41;4.63;;;3.50;;
25627;SDS011;40915;50.826;4.356;2023-02-18T01:25:08;4.00;;;3.55;;
25627;SDS011;40915;50.826;4.356;2023-02-18T01:27:34;3.53;;;3.23;;
25627;SDS011;40915;50.826;4.356;2023-02-18T01:30:00;4.30;;;3.37;;
25627;SDS011;40915;50.826;4.356;2023-02-18T01:32:27;3.70;;;3.10;;
25627;SDS011;40915;50.826;4.356;2023-02-18T01:34:52;3.40;;;3.10;;
25627;SDS011;40915;50.826;4.356;2023-02-18T01:37:18;3.20;;;2.83;;
25627;SDS011;40915;50.826;4.356;2023-02-18T01:39:44;3.23;;;2.87;;
25627;SDS011;40915;50.826;4.356;2023-02-18T01:42:17;4.32;;;3.20;;
25627;SDS011;40915;50.826;4.356;2023-02-18T01:44:44;5.27;;;3.37;;
25627;SDS011;40915;50.826;4.356;2023-02-18T01:47:12;3.50;;;2.80;;
25627;SDS011;40915;50.826;4.356;2023-02-18T01:49:38;3.07;;;2.70;;
25627;SDS011;40915;50.826;4.356;2023-02-18T01:52:05;3.20;;;2.43;;
25627;SDS011;40915;50.826;4.356;2023-02-18T01:54:40;2.57;;;2.33;;
25627;SDS011;40915;50.826;4.356;2023-02-18T01:57:09;2.57;;;2.23;;
25627;SDS011;40915;50.826;4.356;2023-02-18T01:59:39;3.13;;;2.50;;
25627;SDS011;40915;50.826;4.356;2023-02-18T02:02:10;3.43;;;2.10;;
25627;SDS011;40915;50.826;4.356;2023-02-18T02:04:39;3.70;;;2.43;;
25627;SDS011;40915;50.826;4.356;2023-02-18T02:07:05;3.83;;;2.73;;
25627;SDS011;40915;50.826;4.356;2023-02-18T02:09:31;3.77;;;2.90;;
25627;SDS011;40915;50.826;4.356;2023-02-18T02:15:23;2.70;;;2.40;;
25627;SDS011;40915;50.826;4.356;2023-02-18T02:20:35;2.73;;;2.23;;
25627;SDS011;40915;50.826;4.356;2023-02-18T02:23:11;2.73;;;2.03;;
25627;SDS011;40915;50.826;4.356;2023-02-18T02:32:00;2.40;;;1.80;;
25627;SDS011;40915;50.826;4.356;2023-02-18T02:34:39;2.13;;;1.90;;
25627;SDS011;40915;50.826;4.356;2023-02-18T02:43:01;1.93;;;1.77;;
25627;SDS011;40915;50.826;4.356;2023-02-18T02:48:31;3.93;;;2.27;;
25627;SDS011;40915;50.826;4.356;2023-02-18T02:53:54;3.53;;;2.47;;
25627;SDS011;40915;50.826;4.356;2023-02-18T02:56:44;3.70;;;3.10;;
25627;SDS011;40915;50.826;4.356;2023-02-18T02:59:19;4.83;;;3.03;;
25627;SDS011;40915;50.826;4.356;2023-02-18T03:01:56;3.30;;;3.00;;
25627;SDS011;40915;50.826;4.356;2023-02-18T03:10:28;4.22;;;3.38;;
25627;SDS011;40915;50.826;4.356;2023-02-18T03:15:42;3.60;;;3.30;;
25627;SDS011;40915;50.826;4.356;2023-02-18T03:18:22;3.73;;;3.33;;
25627;SDS011;40915;50.826;4.356;2023-02-18T03:21:12;4.67;;;3.70;;
25627;SDS011;40915;50.826;4.356;2023-02-18T03:23:46;3.87;;;3.43;;
25627;SDS011;40915;50.826;4.356;2023-02-18T03:26:17;3.93;;;3.40;;
25627;SDS011;40915;50.826;4.356;2023-02-18T03:28:44;4.00;;;3.60;;
25627;SDS011;40915;50.826;4.356;2023-02-18T03:31:13;5.60;;;4.13;;
25627;SDS011;40915;50.826;4.356;2023-02-18T03:33:44;3.53;;;3.23;;
25627;SDS011;40915;50.826;4.356;2023-02-18T03:36:23;4.90;;;3.50;;
25627;SDS011;40915;50.826;4.356;2023-02-18T03:38:52;4.43;;;3.23;;
25627;SDS011;40915;50.826;4.356;2023-02-18T03:41:27;4.60;;;3.63;;
25627;SDS011;40915;50.826;4.356;2023-02-18T03:43:57;5.43;;;3.00;;
25627;SDS011;40915;50.826;4.356;2023-02-18T03:46:24;4.13;;;3.30;;
25627;SDS011;40915;50.826;4.356;2023-02-18T03:48:51;5.03;;;3.60;;
25627;SDS011;40915;50.826;4.356;2023-02-18T03:51:17;4.17;;;3.67;;
25627;SDS011;40915;50.826;4.356;2023-02-18T03:53:43;5.53;;;3.43;;
25627;SDS011;40915;50.826;4.356;2023-02-18T03:56:10;4.37;;;3.87;;
25627;SDS011;40915;50.826;4.356;2023-02-18T03:58:36;4.00;;;3.47;;
25627;SDS011;40915;50.826;4.356;2023-02-18T04:01:02;4.60;;;3.47;;
25627;SDS011;40915;50.826;4.356;2023-02-18T04:03:28;4.20;;;3.80;;
25627;SDS011;40915;50.826;4.356;2023-02-18T04:05:54;3.90;;;3.50;;
25627;SDS011;40915;50.826;4.356;2023-02-18T04:08:19;4.17;;;3.47;;
25627;SDS011;40915;50.826;4.356;2023-02-18T04:10:45;6.22;;;4.03;;
25627;SDS011;40915;50.826;4.356;2023-02-18T04:13:10;4.33;;;3.63;;
25627;SDS011;40915;50.826;4.356;2023-02-18T04:15:36;4.73;;;3.60;;
25627;SDS011;40915;50.826;4.356;2023-02-18T04:18:02;4.57;;;4.07;;
25627;SDS011;40915;50.826;4.356;2023-02-18T04:20:28;4.23;;;3.80;;
25627;SDS011;40915;50.826;4.356;2023-02-18T04:22:54;4.70;;;4.17;;
25627;SDS011;40915;50.826;4.356;2023-02-18T04:25:19;4.57;;;4.07;;
25627;SDS011;40915;50.826;4.356;2023-02-18T04:27:45;3.87;;;3.47;;
25627;SDS011;40915;50.826;4.356;2023-02-18T04:30:11;4.00;;;3.50;;
25627;SDS011;40915;50.826;4.356;2023-02-18T04:32:37;3.93;;;3.43;;
25627;SDS011;40915;50.826;4.356;2023-02-18T04:35:03;4.97;;;3.60;;
25627;SDS011;40915;50.826;4.356;2023-02-18T04:37:29;3.97;;;3.50;;
25627;SDS011;40915;50.826;4.356;2023-02-18T04:39:54;4.10;;;3.70;;
25627;SDS011;40915;50.826;4.356;2023-02-18T04:42:21;4.00;;;3.60;;
25627;SDS011;40915;50.826;4.356;2023-02-18T04:44:47;3.57;;;3.27;;
25627;SDS011;40915;50.826;4.356;2023-02-18T04:47:12;3.80;;;3.30;;
25627;SDS011;40915;50.826;4.356;2023-02-18T04:49:38;4.17;;;3.73;;
25627;SDS011;40915;50.826;4.356;2023-02-18T04:52:04;4.07;;;3.67;;
25627;SDS011;40915;50.826;4.356;2023-02-18T04:54:29;4.07;;;3.60;;
25627;SDS011;40915;50.826;4.356;2023-02-18T04:56:55;4.57;;;3.27;;
25627;SDS011;40915;50.826;4.356;2023-02-18T04:59:21;3.60;;;3.20;;
25627;SDS011;40915;50.826;4.356;2023-02-18T05:01:46;3.97;;;3.57;;
25627;SDS011;40915;50.826;4.356;2023-02-18T05:04:12;4.07;;;2.97;;
25627;SDS011;40915;50.826;4.356;2023-02-18T05:06:37;3.37;;;3.00;;
25627;SDS011;40915;50.826;4.356;2023-02-18T05:09:04;3.50;;;3.17;;
25627;SDS011;40915;50.826;4.356;2023-02-18T05:11:30;4.53;;;3.40;;
25627;SDS011;40915;50.826;4.356;2023-02-18T05:13:56;3.97;;;3.03;;
25627;SDS011;40915;50.826;4.356;2023-02-18T05:16:21;3.80;;;3.37;;
25627;SDS011;40915;50.826;4.356;2023-02-18T05:18:47;3.33;;;3.00;;
25627;SDS011;40915;50.826;4.356;2023-02-18T05:21:13;3.03;;;2.50;;
25627;SDS011;40915;50.826;4.356;2023-02-18T05:23:38;3.13;;;2.60;;
25627;SDS011;40915;50.826;4.356;2023-02-18T05:26:04;2.33;;;2.07;;
25627;SDS011;40915;50.826;4.356;2023-02-18T05:28:29;4.77;;;2.20;;
25627;SDS011;40915;50.826;4.356;2023-02-18T05:30:55;4.87;;;2.63;;
25627;SDS011;40915;50.826;4.356;2023-02-18T05:33:21;3.77;;;2.30;;
25627;SDS011;40915;50.826;4.356;2023-02-18T05:35:47;3.00;;;2.23;;
25627;SDS011;40915;50.826;4.356;2023-02-18T05:38:13;3.20;;;2.20;;
25627;SDS011;40915;50.826;4.356;2023-02-18T05:40:38;4.80;;;2.20;;
25627;SDS011;40915;50.826;4.356;2023-02-18T05:43:04;4.30;;;2.83;;
25627;SDS011;40915;50.826;4.356;2023-02-18T05:45:30;4.50;;;2.77;;
25627;SDS011;40915;50.826;4.356;2023-02-18T05:47:56;6.50;;;3.27;;
25627;SDS011;40915;50.826;4.356;2023-02-18T05:50:22;6.90;;;3.47;;
25627;SDS011;40915;50.826;4.356;2023-02-18T05:52:47;9.40;;;3.13;;
25627;SDS011;40915;50.826;4.356;2023-02-18T05:55:13;6.83;;;3.80;;
25627;SDS011;40915;50.826;4.356;2023-02-18T05:57:39;6.67;;;3.70;;
25627;SDS011;40915;50.826;4.356;2023-02-18T06:00:05;7.17;;;3.70;;
25627;SDS011;40915;50.826;4.356;2023-02-18T06:02:33;8.03;;;3.00;;
25627;SDS011;40915;50.826;4.356;2023-02-18T06:04:58;7.73;;;2.97;;
25627;SDS011;40915;50.826;4.356;2023-02-18T06:07:24;6.07;;;2.77;;
25627;SDS011;40915;50.826;4.356;2023-02-18T06:09:49;5.53;;;2.67;;
25627;SDS011;40915;50.826;4.356;2023-02-18T06:12:15;9.27;;;2.60;;
25627;SDS011;40915;50.826;4.356;2023-02-18T06:14:42;8.27;;;2.80;;
25627;SDS011;40915;50.826;4.356;2023-02-18T06:17:08;7.17;;;2.07;;
25627;SDS011;40915;50.826;4.356;2023-02-18T06:19:35;10.43;;;2.57;;
25627;SDS011;40915;50.826;4.356;2023-02-18T06:22:01;13.67;;;2.53;;
25627;SDS011;40915;50.826;4.356;2023-02-18T06:24:26;12.20;;;2.50;;
25627;SDS011;40915;50.826;4.356;2023-02-18T06:26:52;11.43;;;2.40;;
25627;SDS011;40915;50.826;4.356;2023-02-18T06:29:17;9.60;;;2.10;;
25627;SDS011;40915;50.826;4.356;2023-02-18T06:31:44;12.90;;;2.27;;
25627;SDS011;40915;50.826;4.356;2023-02-18T06:34:10;8.60;;;2.40;;
25627;SDS011;40915;50.826;4.356;2023-02-18T06:36:37;11.13;;;2.50;;
25627;SDS011;40915;50.826;4.356;2023-02-18T06:39:03;12.90;;;2.53;;
25627;SDS011;40915;50.826;4.356;2023-02-18T06:41:31;16.67;;;2.77;;
25627;SDS011;40915;50.826;4.356;2023-02-18T06:43:58;12.63;;;2.50;;
25627;SDS011;40915;50.826;4.356;2023-02-18T06:46:24;10.67;;;2.27;;
25627;SDS011;40915;50.826;4.356;2023-02-18T06:48:49;13.50;;;2.40;;
25627;SDS011;40915;50.826;4.356;2023-02-18T06:51:15;9.47;;;2.13;;
25627;SDS011;40915;50.826;4.356;2023-02-18T06:53:41;11.87;;;2.17;;
25627;SDS011;40915;50.826;4.356;2023-02-18T06:56:08;11.40;;;2.43;;
25627;SDS011;40915;50.826;4.356;2023-02-18T06:58:33;12.43;;;2.77;;
25627;SDS011;40915;50.826;4.356;2023-02-18T07:00:59;11.63;;;2.77;;
25627;SDS011;40915;50.826;4.356;2023-02-18T07:03:25;12.17;;;2.57;;
25627;SDS011;40915;50.826;4.356;2023-02-18T07:05:51;12.60;;;2.33;;
25627;SDS011;40915;50.826;4.356;2023-02-18T07:08:18;9.17;;;2.70;;
25627;SDS011;40915;50.826;4.356;2023-02-18T07:10:44;18.77;;;2.73;;
25627;SDS011;40915;50.826;4.356;2023-02-18T07:13:11;10.23;;;2.37;;
25627;SDS011;40915;50.826;4.356;2023-02-18T07:15:36;13.73;;;2.70;;
25627;SDS011;40915;50.826;4.356;2023-02-18T07:18:02;13.20;;;2.53;;
25627;SDS011;40915;50.826;4.356;2023-02-18T07:20:29;11.97;;;2.20;;
25627;SDS011;40915;50.826;4.356;2023-02-18T07:22:55;15.60;;;2.53;;
25627;SDS011;40915;50.826;4.356;2023-02-18T07:25:21;13.23;;;2.73;;
25627;SDS011;40915;50.826;4.356;2023-02-18T07:27:46;11.00;;;2.30;;
25627;SDS011;40915;50.826;4.356;2023-02-18T07:30:12;10.90;;;2.60;;
25627;SDS011;40915;50.826;4.356;2023-02-18T07:32:39;12.63;;;2.63;;
25627;SDS011;40915;50.826;4.356;2023-02-18T07:35:05;12.43;;;3.20;;
25627;SDS011;40915;50.826;4.356;2023-02-18T07:37:31;14.00;;;2.97;;
25627;SDS011;40915;50.826;4.356;2023-02-18T07:39:57;15.73;;;2.80;;
25627;SDS011;40915;50.826;4.356;2023-02-18T07:42:22;11.00;;;2.53;;
25627;SDS011;40915;50.826;4.356;2023-02-18T07:44:48;11.00;;;2.50;;
25627;SDS011;40915;50.826;4.356;2023-02-18T07:47:14;10.50;;;1.97;;
25627;SDS011;40915;50.826;4.356;2023-02-18T07:49:43;10.30;;;2.53;;
25627;SDS011;40915;50.826;4.356;2023-02-18T07:52:10;11.67;;;2.00;;
25627;SDS011;40915;50.826;4.356;2023-02-18T07:54:35;14.00;;;2.10;;
25627;SDS011;40915;50.826;4.356;2023-02-18T07:57:01;13.60;;;2.40;;
25627;SDS011;40915;50.826;4.356;2023-02-18T07:59:29;14.48;;;2.42;;
25627;SDS011;40915;50.826;4.356;2023-02-18T08:01:54;12.60;;;2.63;;
25627;SDS011;40915;50.826;4.356;2023-02-18T08:04:20;12.67;;;2.27;;
25627;SDS011;40915;50.826;4.356;2023-02-18T08:06:46;12.80;;;2.03;;
25627;SDS011;40915;50.826;4.356;2023-02-18T08:09:14;9.97;;;2.73;;
25627;SDS011;40915;50.826;4.356;2023-02-18T08:11:40;11.23;;;2.27;;
25627;SDS011;40915;50.826;4.356;2023-02-18T08:14:07;10.50;;;2.27;;
25627;SDS011;40915;50.826;4.356;2023-02-18T08:16:35;9.43;;;2.30;;
25627;SDS011;40915;50.826;4.356;2023-02-18T08:19:06;13.80;;;2.80;;
25627;SDS011;40915;50.826;4.356;2023-02-18T08:21:32;9.40;;;1.80;;
25627;SDS011;40915;50.826;4.356;2023-02-18T08:24:00;11.63;;;2.10;;
25627;SDS011;40915;50.826;4.356;2023-02-18T08:26:26;9.13;;;2.40;;
25627;SDS011;40915;50.826;4.356;2023-02-18T08:28:52;6.40;;;1.70;;
25627;SDS011;40915;50.826;4.356;2023-02-18T08:31:24;11.73;;;2.07;;
25627;SDS011;40915;50.826;4.356;2023-02-18T08:33:53;11.63;;;2.20;;
25627;SDS011;40915;50.826;4.356;2023-02-18T08:36:20;11.73;;;1.93;;
25627;SDS011;40915;50.826;4.356;2023-02-18T08:38:46;6.60;;;1.77;;
25627;SDS011;40915;50.826;4.356;2023-02-18T08:41:12;9.40;;;1.83;;
25627;SDS011;40915;50.826;4.356;2023-02-18T08:43:39;9.40;;;2.33;;
25627;SDS011;40915;50.826;4.356;2023-02-18T08:46:05;11.50;;;1.83;;
25627;SDS011;40915;50.826;4.356;2023-02-18T08:48:31;10.97;;;1.97;;
25627;SDS011;40915;50.826;4.356;2023-02-18T08:50:57;8.83;;;1.77;;
25627;SDS011;40915;50.826;4.356;2023-02-18T08:53:26;8.68;;;1.60;;
25627;SDS011;40915;50.826;4.356;2023-02-18T08:55:51;7.77;;;1.70;;
25627;SDS011;40915;50.826;4.356;2023-02-18T08:58:18;8.70;;;1.97;;
25627;SDS011;40915;50.826;4.356;2023-02-18T09:00:44;13.57;;;2.42;;
25627;SDS011;40915;50.826;4.356;2023-02-18T09:03:13;7.87;;;1.97;;
25627;SDS011;40915;50.826;4.356;2023-02-18T09:05:39;8.67;;;1.60;;
25627;SDS011;40915;50.826;4.356;2023-02-18T09:08:05;10.97;;;1.97;;
25627;SDS011;40915;50.826;4.356;2023-02-18T09:10:31;8.80;;;1.90;;
25627;SDS011;40915;50.826;4.356;2023-02-18T09:12:57;8.07;;;2.00;;
25627;SDS011;40915;50.826;4.356;2023-02-18T09:15:22;7.50;;;1.88;;
25627;SDS011;40915;50.826;4.356;2023-02-18T09:17:48;8.60;;;1.60;;
25627;SDS011;40915;50.826;4.356;2023-02-18T09:20:13;6.03;;;1.52;;
25627;SDS011;40915;50.826;4.356;2023-02-18T09:22:39;6.67;;;1.50;;
25627;SDS011;40915;50.826;4.356;2023-02-18T09:25:05;10.53;;;1.70;;
25627;SDS011;40915;50.826;4.356;2023-02-18T09:27:31;6.43;;;1.67;;
25627;SDS011;40915;50.826;4.356;2023-02-18T09:29:57;8.63;;;1.87;;
25627;SDS011;40915;50.826;4.356;2023-02-18T09:32:23;9.20;;;2.17;;
25627;SDS011;40915;50.826;4.356;2023-02-18T09:34:49;5.53;;;1.43;;
25627;SDS011;40915;50.826;4.356;2023-02-18T09:37:14;5.87;;;1.40;;
25627;SDS011;40915;50.826;4.356;2023-02-18T09:39:40;6.47;;;1.60;;
25627;SDS011;40915;50.826;4.356;2023-02-18T09:42:06;11.13;;;1.77;;
25627;SDS011;40915;50.826;4.356;2023-02-18T09:44:38;5.67;;;1.50;;
25627;SDS011;40915;50.826;4.356;2023-02-18T09:49:51;11.03;;;1.87;;
25627;SDS011;40915;50.826;4.356;2023-02-18T09:53:05;9.80;;;1.57;;
25627;SDS011;40915;50.826;4.356;2023-02-18T09:55:32;5.23;;;1.57;;
25627;SDS011;40915;50.826;4.356;2023-02-18T09:58:06;10.05;;;2.85;;
25627;SDS011;40915;50.826;4.356;2023-02-18T10:00:45;7.30;;;1.60;;
25627;SDS011;40915;50.826;4.356;2023-02-18T10:08:35;5.27;;;1.70;;
25627;SDS011;40915;50.826;4.356;2023-02-18T10:11:05;6.33;;;1.40;;
25627;SDS011;40915;50.826;4.356;2023-02-18T10:13:48;10.73;;;2.37;;
25627;SDS011;40915;50.826;4.356;2023-02-18T10:16:16;3.60;;;1.60;;
25627;SDS011;40915;50.826;4.356;2023-02-18T10:18:47;6.67;;;1.60;;
25627;SDS011;40915;50.826;4.356;2023-02-18T10:21:20;4.87;;;1.40;;
25627;SDS011;40915;50.826;4.356;2023-02-18T10:23:57;7.50;;;1.70;;
25627;SDS011;40915;50.826;4.356;2023-02-18T10:26:26;10.07;;;2.13;;
25627;SDS011;40915;50.826;4.356;2023-02-18T10:28:54;5.30;;;1.65;;
25627;SDS011;40915;50.826;4.356;2023-02-18T10:31:23;7.67;;;1.73;;
25627;SDS011;40915;50.826;4.356;2023-02-18T10:36:46;8.10;;;1.83;;
25627;SDS011;40915;50.826;4.356;2023-02-18T10:39:39;5.45;;;2.10;;
25627;SDS011;40915;50.826;4.356;2023-02-18T10:42:28;7.70;;;2.00;;
25627;SDS011;40915;50.826;4.356;2023-02-18T10:50:51;8.57;;;2.47;;
25627;SDS011;40915;50.826;4.356;2023-02-18T10:56:01;6.60;;;2.35;;
25627;SDS011;40915;50.826;4.356;2023-02-18T11:01:03;11.05;;;2.55;;
25627;SDS011;40915;50.826;4.356;2023-02-18T11:03:48;9.02;;;2.13;;
25627;SDS011;40915;50.826;4.356;2023-02-18T11:06:37;6.20;;;1.97;;
25627;SDS011;40915;50.826;4.356;2023-02-18T11:12:05;9.65;;;2.00;;
25627;SDS011;40915;50.826;4.356;2023-02-18T11:14:39;7.27;;;2.00;;
25627;SDS011;40915;50.826;4.356;2023-02-18T11:17:30;6.20;;;1.55;;
25627;SDS011;40915;50.826;4.356;2023-02-18T11:20:00;8.27;;;2.10;;
25627;SDS011;40915;50.826;4.356;2023-02-18T11:22:42;7.00;;;1.90;;
25627;SDS011;40915;50.826;4.356;2023-02-18T11:25:17;7.18;;;1.88;;
25627;SDS011;40915;50.826;4.356;2023-02-18T11:27:56;12.93;;;2.28;;
25627;SDS011;40915;50.826;4.356;2023-02-18T11:30:45;9.30;;;2.38;;
25627;SDS011;40915;50.826;4.356;2023-02-18T11:35:56;5.80;;;1.73;;
25627;SDS011;40915;50.826;4.356;2023-02-18T11:38:56;13.02;;;2.40;;
25627;SDS011;40915;50.826;4.356;2023-02-18T11:41:20;6.30;;;1.88;;
25627;SDS011;40915;50.826;4.356;2023-02-18T11:43:57;12.73;;;2.03;;
25627;SDS011;40915;50.826;4.356;2023-02-18T11:46:24;9.88;;;2.60;;
25627;SDS011;40915;50.826;4.356;2023-02-18T11:48:51;11.55;;;2.67;;
25627;SDS011;40915;50.826;4.356;2023-02-18T11:51:25;9.13;;;1.80;;
25627;SDS011;40915;50.826;4.356;2023-02-18T11:54:04;10.10;;;2.60;;
25627;SDS011;40915;50.826;4.356;2023-02-18T11:56:59;12.13;;;2.00;;
25627;SDS011;40915;50.826;4.356;2023-02-18T11:59:29;9.40;;;1.92;;
25627;SDS011;40915;50.826;4.356;2023-02-18T12:07:49;7.65;;;1.95;;
25627;SDS011;40915;50.826;4.356;2023-02-18T12:10:22;8.85;;;2.58;;
25627;SDS011;40915;50.826;4.356;2023-02-18T12:12:58;11.90;;;2.33;;
25627;SDS011;40915;50.826;4.356;2023-02-18T12:15:33;10.90;;;2.10;;
25627;SDS011;40915;50.826;4.356;2023-02-18T12:21:00;7.82;;;2.17;;
25627;SDS011;40915;50.826;4.356;2023-02-18T12:26:54;7.75;;;2.13;;
25627;SDS011;40915;50.826;4.356;2023-02-18T12:37:44;8.15;;;2.17;;
25627;SDS011;40915;50.826;4.356;2023-02-18T12:51:21;9.77;;;2.22;;
25627;SDS011;40915;50.826;4.356;2023-02-18T13:03:00;11.15;;;2.53;;
25627;SDS011;40915;50.826;4.356;2023-02-18T13:05:43;8.43;;;2.70;;
25627;SDS011;40915;50.826;4.356;2023-02-18T13:08:43;13.30;;;2.38;;
25627;SDS011;40915;50.826;4.356;2023-02-18T13:16:46;10.30;;;2.20;;
25627;SDS011;40915;50.826;4.356;2023-02-18T13:21:58;12.57;;;2.50;;
25627;SDS011;40915;50.826;4.356;2023-02-18T13:27:15;6.75;;;2.08;;
25627;SDS011;40915;50.826;4.356;2023-02-18T13:40:48;9.48;;;2.90;;
25627;SDS011;40915;50.826;4.356;2023-02-18T13:48:33;10.73;;;2.77;;
25627;SDS011;40915;50.826;4.356;2023-02-18T13:51:04;9.85;;;2.90;;
25627;SDS011;40915;50.826;4.356;2023-02-18T13:53:31;8.80;;;2.30;;
25627;SDS011;40915;50.826;4.356;2023-02-18T13:56:06;10.53;;;2.93;;
25627;SDS011;40915;50.826;4.356;2023-02-18T13:58:35;7.70;;;2.60;;
25627;SDS011;40915;50.826;4.356;2023-02-18T14:01:22;11.20;;;3.25;;
25627;SDS011;40915;50.826;4.356;2023-02-18T14:09:57;8.23;;;2.57;;
25627;SDS011;40915;50.826;4.356;2023-02-18T14:12:25;9.67;;;2.43;;
25627;SDS011;40915;50.826;4.356;2023-02-18T14:15:47;10.00;;;3.10;;
25627;SDS011;40915;50.826;4.356;2023-02-18T14:20:43;14.40;;;3.83;;
25627;SDS011;40915;50.826;4.356;2023-02-18T14:33:36;8.07;;;2.90;;
25627;SDS011;40915;50.826;4.356;2023-02-18T14:36:09;10.87;;;2.63;;
25627;SDS011;40915;50.826;4.356;2023-02-18T14:38:56;11.50;;;2.50;;
25627;SDS011;40915;50.826;4.356;2023-02-18T14:47:19;8.77;;;2.60;;
25627;SDS011;40915;50.826;4.356;2023-02-18T14:50:12;8.07;;;2.53;;
25627;SDS011;40915;50.826;4.356;2023-02-18T14:52:47;8.17;;;2.30;;
25627;SDS011;40915;50.826;4.356;2023-02-18T14:55:25;9.20;;;2.80;;
25627;SDS011;40915;50.826;4.356;2023-02-18T14:58:00;8.13;;;2.70;;
25627;SDS011;40915;50.826;4.356;2023-02-18T15:00:28;13.18;;;2.75;;
25627;SDS011;40915;50.826;4.356;2023-02-18T15:02:58;10.27;;;3.20;;
25627;SDS011;40915;50.826;4.356;2023-02-18T15:05:29;10.10;;;2.30;;
25627;SDS011;40915;50.826;4.356;2023-02-18T15:08:00;7.70;;;2.30;;
25627;SDS011;40915;50.826;4.356;2023-02-18T15:10:38;11.32;;;3.08;;
25627;SDS011;40915;50.826;4.356;2023-02-18T15:13:26;11.20;;;2.20;;
25627;SDS011;40915;50.826;4.356;2023-02-18T15:15:55;5.78;;;2.30;;
25627;SDS011;40915;50.826;4.356;2023-02-18T15:18:32;5.27;;;2.23;;
25627;SDS011;40915;50.826;4.356;2023-02-18T15:21:08;11.73;;;2.97;;
25627;SDS011;40915;50.826;4.356;2023-02-18T15:23:54;8.90;;;2.50;;
25627;SDS011;40915;50.826;4.356;2023-02-18T15:26:45;9.07;;;2.37;;
25627;SDS011;40915;50.826;4.356;2023-02-18T15:29:20;6.77;;;3.60;;
25627;SDS011;40915;50.826;4.356;2023-02-18T15:31:48;12.60;;;3.63;;
25627;SDS011;40915;50.826;4.356;2023-02-18T15:36:52;11.63;;;2.87;;
25627;SDS011;40915;50.826;4.356;2023-02-18T15:39:18;11.15;;;3.30;;
25627;SDS011;40915;50.826;4.356;2023-02-18T15:41:46;8.80;;;2.73;;
25627;SDS011;40915;50.826;4.356;2023-02-18T15:44:27;6.90;;;2.72;;
25627;SDS011;40915;50.826;4.356;2023-02-18T15:47:02;8.35;;;2.92;;
25627;SDS011;40915;50.826;4.356;2023-02-18T15:49:31;15.30;;;6.70;;
25627;SDS011;40915;50.826;4.356;2023-02-18T15:51:59;18.60;;;6.68;;
25627;SDS011;40915;50.826;4.356;2023-02-18T15:54:26;12.27;;;4.80;;
25627;SDS011;40915;50.826;4.356;2023-02-18T15:56:54;8.70;;;3.22;;
25627;SDS011;40915;50.826;4.356;2023-02-18T15:59:24;13.57;;;5.18;;
25627;SDS011;40915;50.826;4.356;2023-02-18T16:01:53;7.72;;;3.10;;
25627;SDS011;40915;50.826;4.356;2023-02-18T16:04:32;8.43;;;2.83;;
25627;SDS011;40915;50.826;4.356;2023-02-18T16:07:02;7.90;;;2.80;;
25627;SDS011;40915;50.826;4.356;2023-02-18T16:09:41;7.95;;;3.00;;
25627;SDS011;40915;50.826;4.356;2023-02-18T16:12:12;8.20;;;2.30;;
25627;SDS011;40915;50.826;4.356;2023-02-18T16:14:52;11.07;;;3.10;;
25627;SDS011;40915;50.826;4.356;2023-02-18T16:17:22;6.47;;;3.20;;
25627;SDS011;40915;50.826;4.356;2023-02-18T16:19:58;6.43;;;3.00;;
25627;SDS011;40915;50.826;4.356;2023-02-18T16:24:58;6.80;;;2.77;;
25627;SDS011;40915;50.826;4.356;2023-02-18T16:27:33;11.82;;;3.20;;
25627;SDS011;40915;50.826;4.356;2023-02-18T16:30:13;7.60;;;4.40;;
25627;SDS011;40915;50.826;4.356;2023-02-18T16:32:41;8.75;;;4.30;;
25627;SDS011;40915;50.826;4.356;2023-02-18T16:35:07;6.78;;;3.35;;
25627;SDS011;40915;50.826;4.356;2023-02-18T16:37:32;8.45;;;2.95;;
25627;SDS011;40915;50.826;4.356;2023-02-18T16:40:26;7.40;;;2.60;;
25627;SDS011;40915;50.826;4.356;2023-02-18T16:43:01;8.30;;;3.00;;
25627;SDS011;40915;50.826;4.356;2023-02-18T16:45:35;6.40;;;2.60;;
25627;SDS011;40915;50.826;4.356;2023-02-18T16:48:04;9.30;;;2.58;;
25627;SDS011;40915;50.826;4.356;2023-02-18T16:50:31;7.57;;;2.70;;
25627;SDS011;40915;50.826;4.356;2023-02-18T16:52:58;9.43;;;2.97;;
25627;SDS011;40915;50.826;4.356;2023-02-18T16:55:25;5.22;;;3.10;;
25627;SDS011;40915;50.826;4.356;2023-02-18T16:57:53;6.38;;;2.92;;
25627;SDS011;40915;50.826;4.356;2023-02-18T17:00:20;7.87;;;2.90;;
25627;SDS011;40915;50.826;4.356;2023-02-18T17:02:50;6.05;;;3.40;;
25627;SDS011;40915;50.826;4.356;2023-02-18T17:05:19;7.00;;;3.17;;
25627;SDS011;40915;50.826;4.356;2023-02-18T17:07:50;6.93;;;2.70;;
25627;SDS011;40915;50.826;4.356;2023-02-18T17:10:16;6.15;;;2.95;;
25627;SDS011;40915;50.826;4.356;2023-02-18T17:12:42;5.33;;;2.80;;
25627;SDS011;40915;50.826;4.356;2023-02-18T17:15:12;6.60;;;2.65;;
25627;SDS011;40915;50.826;4.356;2023-02-18T17:17:42;7.53;;;3.03;;
25627;SDS011;40915;50.826;4.356;2023-02-18T17:20:08;6.70;;;2.90;;
25627;SDS011;40915;50.826;4.356;2023-02-18T17:22:38;7.90;;;3.17;;
25627;SDS011;40915;50.826;4.356;2023-02-18T17:25:08;7.57;;;3.03;;
25627;SDS011;40915;50.826;4.356;2023-02-18T17:27:38;8.20;;;3.50;;
25627;SDS011;40915;50.826;4.356;2023-02-18T17:30:03;8.23;;;3.60;;
25627;SDS011;40915;50.826;4.356;2023-02-18T17:32:32;6.43;;;3.38;;
25627;SDS011;40915;50.826;4.356;2023-02-18T17:34:58;7.40;;;3.90;;
25627;SDS011;40915;50.826;4.356;2023-02-18T17:37:24;9.23;;;3.97;;
25627;SDS011;40915;50.826;4.356;2023-02-18T17:39:51;9.20;;;4.13;;